createdAt,value
2023-03-01T00:01:47.254Z,27.73
2023-03-01T00:04:15.403Z,29.27
2023-03-01T00:06:48.911Z,38.37
2023-03-01T00:09:17.233Z,32.97
2023-03-01T00:11:48.774Z,32.90
2023-03-01T00:14:20.007Z,40.93
2023-03-01T00:16:48.063Z,32.47
2023-03-01T00:19:20.549Z,33.00
2023-03-01T00:21:49.091Z,35.90
2023-03-01T00:24:17.725Z,39.43
2023-03-01T00:26:45.902Z,29.20
2023-03-01T00:29:13.840Z,22.70
2023-03-01T00:31:41.807Z,30.17
2023-03-01T00:34:10.721Z,23.93
2023-03-01T00:36:39.197Z,29.57
2023-03-01T00:39:14.673Z,33.83
2023-03-01T00:41:43.801Z,30.77
2023-03-01T00:44:12.180Z,35.47
2023-03-01T00:46:40.448Z,29.33
2023-03-01T00:49:08.437Z,32.10
2023-03-01T00:51:36.368Z,39.20
2023-03-01T00:54:04.587Z,33.73
2023-03-01T00:56:33.364Z,36.00
2023-03-01T00:59:02.141Z,31.77
2023-03-01T01:01:32.375Z,31.00
2023-03-01T01:04:18.598Z,30.83
2023-03-01T01:06:48.050Z,31.03
2023-03-01T01:09:18.719Z,27.47
2023-03-01T01:11:52.343Z,24.53
2023-03-01T01:14:21.235Z,28.13
2023-03-01T01:16:49.618Z,28.17
2023-03-01T01:19:17.554Z,24.27
2023-03-01T01:21:45.864Z,22.00
2023-03-01T01:24:13.927Z,27.30
2023-03-01T01:26:43.244Z,23.90
2023-03-01T01:29:12.039Z,24.13
2023-03-01T01:31:42.691Z,21.60
2023-03-01T01:34:19.040Z,23.47
2023-03-01T01:36:57.094Z,23.37
2023-03-01T01:39:25.295Z,23.00
2023-03-01T01:41:53.239Z,20.27
2023-03-01T01:44:30.198Z,20.70
2023-03-01T01:47:15.397Z,22.00
2023-03-01T01:49:55.547Z,23.80
2023-03-01T01:52:37.229Z,26.80
2023-03-01T01:55:15.749Z,21.47
2023-03-01T01:57:49.558Z,22.40
2023-03-01T02:00:26.582Z,20.07
2023-03-01T02:03:18.660Z,19.70
2023-03-01T02:06:20.720Z,16.77
2023-03-01T02:08:53.050Z,19.13
2023-03-01T02:11:21.893Z,20.67
2023-03-01T02:13:50.878Z,25.10
2023-03-01T02:16:21.629Z,23.43
2023-03-01T02:18:50.870Z,24.63
2023-03-01T02:21:50.912Z,23.10
2023-03-01T02:24:59.677Z,22.67
2023-03-01T02:27:54.327Z,19.20
2023-03-01T02:30:25.289Z,23.63
2023-03-01T02:33:03.479Z,24.03
2023-03-01T02:35:39.778Z,24.10
2023-03-01T02:38:10.093Z,19.50
2023-03-01T02:40:40.347Z,21.63
2023-03-01T02:43:11.292Z,25.20
2023-03-01T02:45:43.840Z,19.90
2023-03-01T02:48:11.696Z,17.97
2023-03-01T02:51:12.501Z,25.87
2023-03-01T02:53:58.310Z,20.03
2023-03-01T02:56:27.389Z,23.57
2023-03-01T02:58:55.487Z,19.00
2023-03-01T03:01:23.448Z,20.80
2023-03-01T03:03:51.377Z,18.87
2023-03-01T03:06:19.333Z,17.70
2023-03-01T03:08:47.329Z,22.00
2023-03-01T03:11:15.189Z,18.90
2023-03-01T03:13:48.988Z,17.80
2023-03-01T03:16:17.372Z,16.70
2023-03-01T03:18:45.492Z,19.83
2023-03-01T03:21:14.278Z,20.63
2023-03-01T03:23:42.308Z,18.57
2023-03-01T03:26:14.372Z,16.13
2023-03-01T03:28:42.378Z,16.80
2023-03-01T03:31:10.480Z,18.57
2023-03-01T03:33:38.624Z,18.87
2023-03-01T03:36:07.326Z,15.40
2023-03-01T03:38:35.263Z,17.23
2023-03-01T03:41:09.354Z,19.47
2023-03-01T03:43:40.600Z,21.20
2023-03-01T03:46:09.428Z,22.47
2023-03-01T03:48:46.443Z,22.03
2023-03-01T03:51:19.546Z,17.27
2023-03-01T03:53:47.494Z,16.70
2023-03-01T03:56:15.634Z,20.13
2023-03-01T03:58:43.521Z,19.33
2023-03-01T04:01:11.503Z,15.03
2023-03-01T04:03:39.389Z,17.90
2023-03-01T04:06:07.647Z,15.67
2023-03-01T04:08:35.624Z,16.70
2023-03-01T04:11:24.715Z,14.90
2023-03-01T04:13:56.018Z,14.40
2023-03-01T04:16:24.579Z,16.60
2023-03-01T04:18:54.417Z,16.10
2023-03-01T04:21:25.763Z,14.77
2023-03-01T04:23:53.925Z,16.80
2023-03-01T04:26:22.148Z,17.10
2023-03-01T04:28:51.511Z,17.90
2023-03-01T04:31:22.363Z,16.73
2023-03-01T04:33:55.901Z,19.37
2023-03-01T04:36:29.205Z,17.53
2023-03-01T04:38:57.895Z,18.13
2023-03-01T04:41:26.922Z,19.83
2023-03-01T04:43:55.019Z,19.70
2023-03-01T04:46:23.738Z,18.30
2023-03-01T04:48:51.902Z,19.20
2023-03-01T04:51:19.859Z,21.37
2023-03-01T04:53:48.257Z,20.77
2023-03-01T04:56:19.000Z,14.73
2023-03-01T04:58:47.824Z,19.60
2023-03-01T05:01:21.920Z,18.10
2023-03-01T05:03:53.009Z,14.23
2023-03-01T05:06:22.063Z,17.03
2023-03-01T05:08:50.437Z,13.13
2023-03-01T05:11:18.546Z,14.23
2023-03-01T05:13:46.487Z,16.37
2023-03-01T05:16:14.668Z,16.87
2023-03-01T05:18:46.991Z,17.00
2023-03-01T05:21:18.938Z,15.33
2023-03-01T05:23:47.796Z,15.87
2023-03-01T05:26:28.155Z,20.43
2023-03-01T05:29:00.734Z,16.97
2023-03-01T05:31:31.879Z,15.17
2023-03-01T05:34:00.350Z,19.27
2023-03-01T05:36:28.446Z,17.50
2023-03-01T05:38:56.820Z,20.33
2023-03-01T05:41:24.868Z,19.30
2023-03-01T05:43:53.057Z,21.30
2023-03-01T05:46:21.066Z,18.17
2023-03-01T05:48:49.266Z,18.87
2023-03-01T05:51:18.509Z,21.10
2023-03-01T05:53:46.450Z,19.50
2023-03-01T05:56:14.323Z,14.53
2023-03-01T05:58:42.314Z,19.37
2023-03-01T06:01:14.564Z,18.07
2023-03-01T06:03:45.581Z,21.07
2023-03-01T06:06:13.485Z,16.47
2023-03-01T06:08:41.704Z,16.30
2023-03-01T06:11:10.688Z,16.27
2023-03-01T06:13:38.678Z,14.87
2023-03-01T06:16:08.420Z,18.33
2023-03-01T06:18:38.505Z,22.20
2023-03-01T06:21:08.642Z,20.77
2023-03-01T06:23:36.692Z,15.87
2023-03-01T06:26:10.223Z,20.03
2023-03-01T06:28:38.411Z,16.13
2023-03-01T06:31:09.744Z,19.97
2023-03-01T06:33:37.960Z,17.47
2023-03-01T06:36:06.741Z,16.00
2023-03-01T06:38:34.848Z,17.43
2023-03-01T06:41:02.931Z,19.30
2023-03-01T06:43:31.138Z,21.03
2023-03-01T06:45:59.062Z,20.37
2023-03-01T06:48:27.108Z,23.43
2023-03-01T06:50:58.916Z,26.47
2023-03-01T06:53:27.425Z,21.37
2023-03-01T06:56:01.000Z,22.33
2023-03-01T06:58:29.011Z,19.00
2023-03-01T07:00:57.022Z,23.43
2023-03-01T07:03:27.657Z,24.80
2023-03-01T07:05:55.615Z,23.40
2023-03-01T07:08:23.869Z,20.80
2023-03-01T07:11:00.427Z,20.37
2023-03-01T07:13:28.739Z,18.57
2023-03-01T07:15:56.951Z,17.30
2023-03-01T07:18:25.325Z,20.00
2023-03-01T07:20:53.522Z,17.57
2023-03-01T07:23:21.442Z,17.47
2023-03-01T07:25:57.533Z,17.23
2023-03-01T07:28:26.386Z,19.10
2023-03-01T07:30:54.848Z,14.70
2023-03-01T07:33:22.910Z,14.60
2023-03-01T07:36:04.734Z,16.10
2023-03-01T07:38:33.075Z,14.57
2023-03-01T07:41:04.680Z,17.87
2023-03-01T07:43:33.326Z,14.73
2023-03-01T07:46:03.081Z,14.63
2023-03-01T07:48:32.671Z,14.37
2023-03-01T07:51:07.021Z,17.97
2023-03-01T07:53:36.072Z,19.07
2023-03-01T07:56:11.952Z,15.87
2023-03-01T07:58:43.681Z,19.67
2023-03-01T08:01:17.484Z,19.13
2023-03-01T08:03:45.791Z,31.13
2023-03-01T08:06:17.945Z,20.50
2023-03-01T08:08:47.054Z,16.53
2023-03-01T08:11:16.625Z,18.23
2023-03-01T08:13:45.418Z,14.93
2023-03-01T08:16:16.599Z,16.50
2023-03-01T08:18:44.931Z,16.60
2023-03-01T08:21:17.841Z,22.67
2023-03-01T08:23:46.369Z,20.47
2023-03-01T08:26:20.540Z,15.73
2023-03-01T08:28:50.374Z,14.53
2023-03-01T08:31:39.831Z,14.20
2023-03-01T08:34:14.629Z,18.87
2023-03-01T08:36:46.834Z,18.07
2023-03-01T08:39:19.241Z,19.97
2023-03-01T08:41:48.372Z,15.87
2023-03-01T08:44:21.934Z,17.13
2023-03-01T08:46:52.402Z,15.23
2023-03-01T08:49:24.679Z,14.77
2023-03-01T08:51:55.409Z,17.17
2023-03-01T08:54:23.495Z,18.03
2023-03-01T08:56:51.534Z,14.80
2023-03-01T08:59:22.268Z,14.80
2023-03-01T09:01:50.242Z,12.70
2023-03-01T09:04:18.231Z,13.10
2023-03-01T09:06:46.254Z,14.47
2023-03-01T09:09:18.198Z,15.83
2023-03-01T09:11:47.823Z,16.67
2023-03-01T09:14:16.455Z,12.50
2023-03-01T09:16:44.720Z,15.60
2023-03-01T09:19:13.223Z,13.83
2023-03-01T09:21:41.758Z,12.13
2023-03-01T09:24:16.411Z,10.03
2023-03-01T09:26:48.079Z,8.07
2023-03-01T09:29:17.698Z,9.03
2023-03-01T09:31:46.877Z,13.63
2023-03-01T09:34:20.225Z,12.23
2023-03-01T09:36:48.228Z,5.90
2023-03-01T09:39:16.144Z,6.30
2023-03-01T09:42:03.435Z,17.03
2023-03-01T09:44:58.933Z,13.50
2023-03-01T09:47:32.117Z,9.17
2023-03-01T09:50:22.348Z,10.97
2023-03-01T09:53:14.293Z,5.80
2023-03-01T09:55:58.231Z,5.53
2023-03-01T09:59:06.789Z,7.77
2023-03-01T10:02:25.597Z,8.93
2023-03-01T10:05:14.127Z,6.53
2023-03-01T10:08:15.047Z,9.73
2023-03-01T10:10:53.133Z,5.33
2023-03-01T10:13:37.780Z,6.83
2023-03-01T10:16:24.996Z,5.00
2023-03-01T10:19:03.571Z,8.40
2023-03-01T10:21:34.823Z,8.30
2023-03-01T10:24:22.010Z,4.53
2023-03-01T10:27:05.301Z,6.13
2023-03-01T10:29:53.162Z,6.00
2023-03-01T10:32:25.050Z,6.27
2023-03-01T10:34:53.319Z,5.40
2023-03-01T10:37:25.374Z,6.47
2023-03-01T10:40:09.608Z,7.07
2023-03-01T10:42:48.972Z,11.17
2023-03-01T10:45:41.919Z,13.20
2023-03-01T10:48:14.153Z,6.23
2023-03-01T10:50:50.417Z,7.43
2023-03-01T10:53:43.218Z,4.43
2023-03-01T10:56:16.509Z,5.80
2023-03-01T10:59:05.897Z,5.00
2023-03-01T11:01:36.973Z,6.07
2023-03-01T11:04:13.003Z,7.07
2023-03-01T11:06:42.960Z,6.80
2023-03-01T11:09:28.198Z,2.97
2023-03-01T11:12:00.731Z,6.87
2023-03-01T11:14:46.978Z,3.80
2023-03-01T11:17:29.996Z,4.90
2023-03-01T11:20:36.632Z,4.77
2023-03-01T11:23:14.775Z,4.00
2023-03-01T11:26:06.850Z,4.83
2023-03-01T11:28:40.693Z,4.20
2023-03-01T11:31:17.888Z,7.43
2023-03-01T11:34:20.767Z,6.00
2023-03-01T11:37:00.988Z,3.80
2023-03-01T11:40:25.270Z,7.57
2023-03-01T11:43:50.311Z,11.57
2023-03-01T11:46:33.674Z,5.17
2023-03-01T11:49:58.866Z,6.67
2023-03-01T11:52:50.912Z,5.90
2023-03-01T11:55:41.719Z,3.63
2023-03-01T11:58:44.541Z,6.73
2023-03-01T12:02:02.999Z,6.47
2023-03-01T12:05:33.017Z,5.13
2023-03-01T12:08:29.266Z,3.77
2023-03-01T12:11:47.667Z,4.13
2023-03-01T12:15:12.965Z,4.90
2023-03-01T12:18:17.943Z,3.43
2023-03-01T12:21:30.097Z,6.37
2023-03-01T12:24:43.409Z,4.37
2023-03-01T12:28:20.779Z,5.43
2023-03-01T12:31:29.306Z,6.97
2023-03-01T12:34:40.694Z,5.50
2023-03-01T12:37:45.573Z,5.17
2023-03-01T12:40:38.815Z,4.40
2023-03-01T12:43:42.489Z,6.53
2023-03-01T12:46:53.712Z,2.93
2023-03-01T12:49:35.570Z,3.07
2023-03-01T12:52:25.518Z,4.30
2023-03-01T12:54:58.235Z,11.13
2023-03-01T12:57:46.579Z,5.70
2023-03-01T13:01:27.344Z,5.73
2023-03-01T13:04:47.028Z,3.37
2023-03-01T13:08:39.238Z,5.47
2023-03-01T13:11:24.392Z,5.70
2023-03-01T13:13:55.373Z,2.77
2023-03-01T13:16:46.003Z,3.43
2023-03-01T13:19:37.239Z,12.60
2023-03-01T13:22:35.543Z,5.93
2023-03-01T13:25:20.916Z,2.97
2023-03-01T13:27:51.968Z,4.70
2023-03-01T13:30:35.552Z,4.63
2023-03-01T13:33:28.219Z,4.30
2023-03-01T13:36:01.756Z,5.37
2023-03-01T13:39:03.114Z,3.10
2023-03-01T13:41:40.871Z,6.57
2023-03-01T13:44:27.727Z,4.30
2023-03-01T13:47:13.520Z,7.23
2023-03-01T13:50:04.451Z,3.63
2023-03-01T13:52:59.682Z,3.23
2023-03-01T13:55:47.588Z,2.70
2023-03-01T13:58:37.094Z,2.63
2023-03-01T14:01:09.589Z,3.93
2023-03-01T14:03:43.509Z,3.07
2023-03-01T14:06:25.881Z,3.03
2023-03-01T14:09:36.711Z,2.87
2023-03-01T14:12:38.060Z,8.57
2023-03-01T14:15:34.509Z,4.30
2023-03-01T14:18:56.336Z,3.23
2023-03-01T14:21:26.405Z,2.60
2023-03-01T14:23:54.553Z,3.37
2023-03-01T14:26:24.614Z,2.73
2023-03-01T14:28:53.062Z,2.43
2023-03-01T14:31:52.484Z,3.83
2023-03-01T14:34:26.417Z,4.47
2023-03-01T14:36:57.204Z,3.07
2023-03-01T14:39:34.194Z,3.50
2023-03-01T14:42:15.437Z,3.63
2023-03-01T14:44:50.381Z,7.03
2023-03-01T14:47:40.889Z,3.60
2023-03-01T14:50:35.325Z,4.20
2023-03-01T14:53:25.724Z,9.33
2023-03-01T14:56:04.866Z,14.23
2023-03-01T14:58:35.268Z,10.80
2023-03-01T15:01:18.480Z,3.17
2023-03-01T15:04:00.130Z,4.70
2023-03-01T15:06:32.753Z,4.30
2023-03-01T15:09:04.394Z,7.05
2023-03-01T15:11:34.809Z,4.50
2023-03-01T15:14:25.267Z,4.78
2023-03-01T15:17:06.265Z,5.40
2023-03-01T15:19:44.548Z,3.20
2023-03-01T15:22:21.857Z,6.37
2023-03-01T15:25:17.017Z,3.20
2023-03-01T15:27:58.722Z,4.53
2023-03-01T15:31:18.498Z,5.07
2023-03-01T15:34:30.221Z,4.73
2023-03-01T15:37:02.492Z,4.43
2023-03-01T15:39:38.533Z,3.03
2023-03-01T15:42:30.677Z,9.03
2023-03-01T15:45:34.968Z,4.33
2023-03-01T15:48:18.302Z,7.93
2023-03-01T15:51:00.346Z,5.27
2023-03-01T15:53:29.984Z,6.63
2023-03-01T15:55:58.518Z,5.13
2023-03-01T15:58:27.418Z,5.07
2023-03-01T16:01:01.301Z,4.87
2023-03-01T16:03:30.605Z,6.37
2023-03-01T16:05:58.546Z,6.90
2023-03-01T16:08:26.531Z,5.70
2023-03-01T16:10:55.505Z,4.57
2023-03-01T16:13:23.727Z,8.27
2023-03-01T16:15:52.411Z,4.93
2023-03-01T16:18:20.419Z,4.97
2023-03-01T16:20:49.246Z,5.97
2023-03-01T16:23:17.308Z,4.43
2023-03-01T16:25:45.357Z,5.20
2023-03-01T16:28:13.312Z,8.60
2023-03-01T16:30:41.625Z,7.90
2023-03-01T16:33:25.732Z,4.77
2023-03-01T16:35:59.042Z,5.97
2023-03-01T16:38:27.572Z,4.77
2023-03-01T16:40:55.565Z,4.23
2023-03-01T16:43:23.538Z,6.73
2023-03-01T16:45:52.828Z,7.80
2023-03-01T16:48:23.170Z,8.03
2023-03-01T16:51:05.368Z,5.53
2023-03-01T16:53:34.750Z,6.13
2023-03-01T16:56:04.785Z,8.43
2023-03-01T16:58:32.916Z,5.17
2023-03-01T17:01:16.691Z,6.23
2023-03-01T17:03:47.253Z,6.20
2023-03-01T17:06:21.397Z,7.57
2023-03-01T17:08:49.530Z,7.67
2023-03-01T17:11:23.373Z,8.43
2023-03-01T17:13:51.584Z,18.47
2023-03-01T17:16:21.525Z,8.47
2023-03-01T17:18:49.923Z,10.63
2023-03-01T17:21:18.939Z,8.30
2023-03-01T17:23:50.265Z,8.70
2023-03-01T17:26:18.430Z,6.63
2023-03-01T17:28:51.668Z,8.67
2023-03-01T17:31:21.333Z,9.53
2023-03-01T17:33:50.209Z,11.07
2023-03-01T17:36:19.207Z,10.77
2023-03-01T17:38:47.334Z,12.30
2023-03-01T17:41:17.729Z,9.87
2023-03-01T17:43:46.279Z,15.80
2023-03-01T17:46:14.698Z,14.03
2023-03-01T17:48:42.656Z,20.87
2023-03-01T17:51:12.197Z,12.53
2023-03-01T17:53:40.324Z,15.03
2023-03-01T17:56:08.444Z,14.73
2023-03-01T17:58:39.965Z,14.30
2023-03-01T18:01:18.686Z,16.83
2023-03-01T18:03:47.718Z,13.47
2023-03-01T18:06:21.223Z,15.67
2023-03-01T18:08:50.705Z,13.93
2023-03-01T18:11:19.688Z,16.97
2023-03-01T18:13:47.798Z,12.80
2023-03-01T18:16:20.084Z,12.60
2023-03-01T18:18:52.455Z,17.63
2023-03-01T18:21:21.469Z,19.83
2023-03-01T18:23:49.475Z,16.50
2023-03-01T18:26:19.639Z,17.73
2023-03-01T18:28:48.614Z,14.80
2023-03-01T18:31:18.741Z,14.73
2023-03-01T18:33:48.439Z,15.43
2023-03-01T18:36:26.076Z,17.17
2023-03-01T18:38:56.249Z,19.03
2023-03-01T18:41:29.646Z,17.40
2023-03-01T18:43:57.793Z,25.03
2023-03-01T18:46:26.623Z,17.00
2023-03-01T18:48:55.428Z,13.53
2023-03-01T18:51:27.295Z,17.57
2023-03-01T18:53:58.624Z,22.53
2023-03-01T18:56:29.990Z,26.27
2023-03-01T18:58:59.477Z,13.77
2023-03-01T19:01:30.812Z,13.00
2023-03-01T19:03:59.313Z,17.07
2023-03-01T19:06:35.501Z,23.30
2023-03-01T19:09:06.343Z,18.40
2023-03-01T19:11:35.618Z,17.57
2023-03-01T19:14:05.370Z,20.90
2023-03-01T19:16:35.022Z,19.43
2023-03-01T19:19:06.279Z,16.73
2023-03-01T19:21:34.683Z,16.60
2023-03-01T19:24:03.164Z,18.43
2023-03-01T19:26:32.005Z,20.80
2023-03-01T19:29:01.422Z,20.07
2023-03-01T19:31:31.516Z,16.27
2023-03-01T19:34:10.372Z,26.70
2023-03-01T19:36:42.616Z,24.50
2023-03-01T19:39:13.521Z,19.33
2023-03-01T19:41:43.525Z,23.33
2023-03-01T19:44:12.595Z,24.83
2023-03-01T19:46:41.160Z,28.23
2023-03-01T19:49:10.428Z,32.60
2023-03-01T19:51:39.451Z,31.57
2023-03-01T19:54:09.761Z,26.30
2023-03-01T19:56:38.936Z,24.93
2023-03-01T19:59:07.713Z,32.47
2023-03-01T20:01:37.534Z,25.67
2023-03-01T20:04:06.071Z,28.77
2023-03-01T20:06:34.342Z,27.97
2023-03-01T20:09:19.324Z,28.97
2023-03-01T20:11:50.904Z,29.17
2023-03-01T20:14:21.114Z,27.73
2023-03-01T20:16:52.073Z,30.23
2023-03-01T20:19:20.832Z,30.20
2023-03-01T20:21:50.167Z,25.17
2023-03-01T20:24:18.128Z,30.13
2023-03-01T20:26:46.300Z,26.10
2023-03-01T20:29:14.326Z,33.83
2023-03-01T20:31:42.637Z,29.37
2023-03-01T20:34:10.781Z,29.63
2023-03-01T20:36:39.424Z,24.33
2023-03-01T20:39:09.525Z,26.33
2023-03-01T20:41:39.171Z,27.73
2023-03-01T20:44:07.109Z,29.27
2023-03-01T20:46:36.804Z,26.43
2023-03-01T20:49:06.359Z,21.33
2023-03-01T20:51:34.379Z,32.27
2023-03-01T20:54:03.188Z,25.50
2023-03-01T20:56:31.899Z,22.13
2023-03-01T20:59:00.500Z,23.57
2023-03-01T21:01:28.518Z,25.10
2023-03-01T21:03:56.527Z,22.93
2023-03-01T21:06:24.446Z,22.10
2023-03-01T21:08:52.350Z,19.50
2023-03-01T21:11:24.764Z,17.27
2023-03-01T21:13:56.305Z,18.77
2023-03-01T21:16:25.108Z,15.47
2023-03-01T21:18:53.371Z,15.63
2023-03-01T21:21:24.228Z,14.53
2023-03-01T21:23:53.516Z,13.40
2023-03-01T21:26:27.900Z,15.73
2023-03-01T21:29:03.149Z,15.47
2023-03-01T21:31:35.092Z,16.90
2023-03-01T21:34:06.658Z,16.10
2023-03-01T21:36:36.490Z,21.97
2023-03-01T21:39:06.966Z,23.80
2023-03-01T21:41:37.380Z,26.30
2023-03-01T21:44:07.269Z,22.00
2023-03-01T21:46:39.172Z,24.57
2023-03-01T21:49:09.863Z,20.03
2023-03-01T21:51:40.227Z,25.90
2023-03-01T21:54:11.803Z,21.57
2023-03-01T21:56:40.820Z,22.80
2023-03-01T21:59:20.294Z,30.00
2023-03-01T22:01:49.860Z,21.00
2023-03-01T22:04:20.035Z,21.07
2023-03-01T22:06:48.117Z,22.73
2023-03-01T22:09:26.267Z,20.60
2023-03-01T22:12:02.534Z,24.60
2023-03-01T22:14:32.845Z,22.07
2023-03-01T22:17:01.393Z,21.43
2023-03-01T22:19:30.273Z,24.47
2023-03-01T22:21:58.392Z,19.20
2023-03-01T22:24:27.080Z,20.03
2023-03-01T22:26:55.750Z,19.20
2023-03-01T22:29:29.637Z,19.90
2023-03-01T22:31:59.374Z,20.93
2023-03-01T22:34:27.952Z,23.43
2023-03-01T22:36:56.602Z,24.60
2023-03-01T22:39:27.763Z,23.93
2023-03-01T22:41:56.031Z,20.47
2023-03-01T22:44:24.700Z,21.87
2023-03-01T22:46:53.431Z,25.43
2023-03-01T22:49:22.575Z,25.40
2023-03-01T22:52:00.460Z,32.17
2023-03-01T22:54:29.646Z,26.43
2023-03-01T22:56:58.171Z,29.00
2023-03-01T22:59:27.957Z,21.70
2023-03-01T23:01:57.252Z,25.43
2023-03-01T23:04:25.404Z,25.90
2023-03-01T23:06:56.931Z,25.17
2023-03-01T23:09:34.454Z,25.93
2023-03-01T23:12:06.805Z,32.53
2023-03-01T23:14:35.614Z,29.17
2023-03-01T23:17:05.376Z,28.87
2023-03-01T23:19:35.717Z,22.60
2023-03-01T23:22:03.789Z,26.10
2023-03-01T23:24:32.242Z,25.97
2023-03-01T23:27:02.417Z,31.23
2023-03-01T23:29:32.223Z,31.67
2023-03-01T23:32:01.044Z,28.40
2023-03-01T23:34:29.069Z,29.17
2023-03-01T23:36:58.521Z,31.20
2023-03-01T23:39:27.353Z,25.70
2023-03-01T23:41:55.637Z,24.47
2023-03-01T23:44:23.741Z,27.83
2023-03-01T23:46:51.781Z,33.43
2023-03-01T23:49:23.260Z,29.83
2023-03-01T23:51:52.151Z,26.80
2023-03-01T23:54:24.469Z,26.70
2023-03-01T23:56:52.966Z,23.27
2023-03-01T23:59:23.983Z,29.43
